createdAt,value
2022-10-23T00:00:40.363Z,15.32
2022-10-23T00:03:06.870Z,20.60
2022-10-23T00:05:33.822Z,15.32
2022-10-23T00:08:00.768Z,13.73
2022-10-23T00:10:28.206Z,12.00
2022-10-23T00:12:54.692Z,11.88
2022-10-23T00:15:22.557Z,9.40
2022-10-23T00:17:49.551Z,11.57
2022-10-23T00:20:17.588Z,12.65
2022-10-23T00:22:44.045Z,20.15
2022-10-23T00:25:10.949Z,14.52
2022-10-23T00:27:37.566Z,9.85
2022-10-23T00:30:05.286Z,14.00
2022-10-23T00:34:59.135Z,26.83
2022-10-23T00:37:25.617Z,21.00
2022-10-23T00:39:52.142Z,12.23
2022-10-23T00:42:20.327Z,13.00
2022-10-23T00:44:46.673Z,16.92
2022-10-23T00:47:13.780Z,10.60
2022-10-23T00:49:42.699Z,11.43
2022-10-23T00:52:12.205Z,15.75
2022-10-23T00:54:40.883Z,18.30
2022-10-23T00:57:12.793Z,17.73
2022-10-23T00:59:39.443Z,14.70
2022-10-23T01:02:06.599Z,17.67
2022-10-23T01:04:34.278Z,11.82
2022-10-23T01:07:22.579Z,10.90
2022-10-23T01:09:56.803Z,16.20
2022-10-23T01:12:29.662Z,21.80
2022-10-23T01:15:04.104Z,13.98
2022-10-23T01:17:40.843Z,15.43
2022-10-23T01:20:33.093Z,15.80
2022-10-23T01:23:12.802Z,20.55
2022-10-23T01:26:00.596Z,21.65
2022-10-23T01:28:48.835Z,17.52
2022-10-23T01:31:18.964Z,15.63
2022-10-23T01:33:51.280Z,16.67
2022-10-23T01:36:20.822Z,23.27
2022-10-23T01:39:06.966Z,17.33
2022-10-23T01:41:39.175Z,14.43
2022-10-23T01:44:13.303Z,20.13
2022-10-23T01:46:40.046Z,12.10
2022-10-23T01:49:08.760Z,17.75
2022-10-23T01:51:36.932Z,11.38
2022-10-23T01:54:06.227Z,17.75
2022-10-23T01:56:33.989Z,14.02
2022-10-23T01:59:03.755Z,17.85
2022-10-23T02:01:31.041Z,12.10
2022-10-23T02:06:25.325Z,14.98
2022-10-23T02:08:51.787Z,29.00
2022-10-23T02:11:21.035Z,19.85
2022-10-23T02:13:59.291Z,16.30
2022-10-23T02:16:41.516Z,20.42
2022-10-23T02:19:15.874Z,24.08
2022-10-23T02:21:52.580Z,16.20
2022-10-23T02:24:34.387Z,27.17
2022-10-23T02:27:03.224Z,27.27
2022-10-23T02:29:40.578Z,19.77
2022-10-23T02:32:08.281Z,29.00
2022-10-23T02:34:34.769Z,26.23
2022-10-23T02:37:02.152Z,23.00
2022-10-23T02:39:29.061Z,20.65
2022-10-23T02:42:10.152Z,20.63
2022-10-23T02:45:24.665Z,25.13
2022-10-23T02:48:09.763Z,22.02
2022-10-23T02:50:39.701Z,28.20
2022-10-23T02:53:19.512Z,30.75
2022-10-23T02:55:45.909Z,33.42
2022-10-23T02:58:28.306Z,32.38
2022-10-23T03:01:03.924Z,28.13
2022-10-23T03:03:33.859Z,26.10
2022-10-23T03:06:00.321Z,25.90
2022-10-23T03:08:26.784Z,25.17
2022-10-23T03:10:53.269Z,18.25
2022-10-23T03:13:19.744Z,19.88
2022-10-23T03:15:46.241Z,22.73
2022-10-23T03:18:12.747Z,25.33
2022-10-23T03:20:39.256Z,33.65
2022-10-23T03:23:05.727Z,27.67
2022-10-23T03:25:32.393Z,28.40
2022-10-23T03:27:59.284Z,19.77
2022-10-23T03:30:25.743Z,35.28
2022-10-23T03:32:52.233Z,29.27
2022-10-23T03:35:18.700Z,35.58
2022-10-23T03:37:45.271Z,25.45
2022-10-23T03:40:12.063Z,35.65
2022-10-23T03:42:38.517Z,22.92
2022-10-23T03:45:05.364Z,29.40
2022-10-23T03:47:34.921Z,32.63
2022-10-23T03:50:01.841Z,29.88
2022-10-23T03:52:28.307Z,25.08
2022-10-23T03:54:54.767Z,30.90
2022-10-23T03:57:21.230Z,39.65
2022-10-23T03:59:47.670Z,30.25
2022-10-23T04:02:14.185Z,30.35
2022-10-23T04:04:40.744Z,21.70
2022-10-23T04:07:07.215Z,30.65
2022-10-23T04:09:33.712Z,27.05
2022-10-23T04:12:00.370Z,34.88
2022-10-23T04:14:27.084Z,33.13
2022-10-23T04:16:53.746Z,32.08
2022-10-23T04:19:20.198Z,30.25
2022-10-23T04:21:46.748Z,29.02
2022-10-23T04:24:13.231Z,42.72
2022-10-23T04:26:39.747Z,36.08
2022-10-23T04:29:07.036Z,39.42
2022-10-23T04:31:33.525Z,22.20
2022-10-23T04:34:00.058Z,22.55
2022-10-23T04:36:26.607Z,26.42
2022-10-23T04:38:53.243Z,33.78
2022-10-23T04:41:19.767Z,23.00
2022-10-23T04:43:46.259Z,34.15
2022-10-23T04:46:12.778Z,29.17
2022-10-23T04:48:39.236Z,39.90
2022-10-23T04:51:06.413Z,35.72
2022-10-23T04:53:33.174Z,10.52
2022-10-23T04:56:00.008Z,13.50
2022-10-23T04:58:27.229Z,17.80
2022-10-23T05:00:53.856Z,29.83
2022-10-23T05:03:21.523Z,18.45
2022-10-23T05:05:47.981Z,8.98
2022-10-23T05:08:17.855Z,9.55
2022-10-23T05:10:44.949Z,9.18
2022-10-23T05:13:11.483Z,12.13
2022-10-23T05:15:37.987Z,38.35
2022-10-23T05:18:16.200Z,19.50
2022-10-23T05:20:42.999Z,17.48
2022-10-23T05:23:11.248Z,12.15
2022-10-23T05:25:37.720Z,15.30
2022-10-23T05:28:04.239Z,17.45
2022-10-23T05:30:32.955Z,36.08
2022-10-23T05:33:01.124Z,50.08
2022-10-23T05:35:29.626Z,10.65
2022-10-23T05:37:57.743Z,15.25
2022-10-23T05:40:24.550Z,34.13
2022-10-23T05:42:51.079Z,61.80
2022-10-23T05:45:17.541Z,45.50
2022-10-23T05:47:45.203Z,23.42
2022-10-23T05:50:11.670Z,16.40
2022-10-23T05:52:38.144Z,21.50
2022-10-23T05:55:04.710Z,18.35
2022-10-23T05:57:34.112Z,22.42
2022-10-23T06:00:00.649Z,29.20
2022-10-23T06:02:27.210Z,25.80
2022-10-23T06:04:53.720Z,38.33
2022-10-23T06:07:24.998Z,17.92
2022-10-23T06:09:52.845Z,20.27
2022-10-23T06:12:20.659Z,16.20
2022-10-23T06:14:47.284Z,28.20
2022-10-23T06:17:13.744Z,132.15
2022-10-23T06:19:40.230Z,40.28
2022-10-23T06:22:06.783Z,70.10
2022-10-23T06:24:33.340Z,29.67
2022-10-23T06:26:59.798Z,67.28
2022-10-23T06:29:26.247Z,61.85
2022-10-23T06:31:52.716Z,47.97
2022-10-23T06:34:19.206Z,66.93
2022-10-23T06:36:45.719Z,78.15
2022-10-23T06:39:12.270Z,70.40
2022-10-23T06:41:41.886Z,68.72
2022-10-23T06:44:10.133Z,137.65
2022-10-23T06:46:36.629Z,64.95
2022-10-23T06:49:03.463Z,31.33
2022-10-23T06:51:29.926Z,31.35
2022-10-23T06:53:57.210Z,35.92
2022-10-23T06:56:25.222Z,52.38
2022-10-23T06:58:51.777Z,30.38
2022-10-23T07:01:18.338Z,21.70
2022-10-23T07:03:45.039Z,35.10
2022-10-23T07:06:11.542Z,35.20
2022-10-23T07:08:38.037Z,34.17
2022-10-23T07:11:09.341Z,25.60
2022-10-23T07:13:36.743Z,17.60
2022-10-23T07:16:13.298Z,24.50
2022-10-23T07:18:39.897Z,14.52
2022-10-23T07:21:06.422Z,20.65
2022-10-23T07:23:32.907Z,20.30
2022-10-23T07:26:10.676Z,39.15
2022-10-23T07:28:37.747Z,18.85
2022-10-23T07:31:04.242Z,27.40
2022-10-23T07:33:30.704Z,37.13
2022-10-23T07:35:57.232Z,42.28
2022-10-23T07:38:23.721Z,48.20
2022-10-23T07:40:50.239Z,10.57
2022-10-23T07:43:18.400Z,33.63
2022-10-23T07:45:47.471Z,11.15
2022-10-23T07:48:13.958Z,20.75
2022-10-23T07:50:40.457Z,28.25
2022-10-23T07:53:06.957Z,38.30
2022-10-23T07:55:33.455Z,15.23
2022-10-23T07:57:59.933Z,37.92
2022-10-23T08:00:26.417Z,91.95
2022-10-23T08:02:52.966Z,56.22
2022-10-23T08:05:20.248Z,161.38
2022-10-23T08:07:46.775Z,111.35
2022-10-23T08:10:13.218Z,21.42
2022-10-23T08:12:39.726Z,50.55
2022-10-23T08:15:06.504Z,109.05
2022-10-23T08:17:33.026Z,39.67
2022-10-23T08:19:59.515Z,59.85
2022-10-23T08:22:25.985Z,63.53
2022-10-23T08:24:52.439Z,168.20
2022-10-23T08:27:18.903Z,141.23
2022-10-23T08:29:45.452Z,60.75
2022-10-23T08:32:11.929Z,37.97
2022-10-23T08:34:38.456Z,117.10
2022-10-23T08:37:05.025Z,125.55
2022-10-23T08:39:31.483Z,65.55
2022-10-23T08:41:57.959Z,94.05
2022-10-23T08:44:48.680Z,50.28
2022-10-23T08:47:18.851Z,39.58
2022-10-23T08:49:57.658Z,105.90
2022-10-23T08:52:35.543Z,34.53
2022-10-23T08:55:31.077Z,96.03
2022-10-23T08:58:00.502Z,46.95
2022-10-23T09:00:27.814Z,33.30
2022-10-23T09:02:54.582Z,180.52
2022-10-23T09:05:42.038Z,126.32
2022-10-23T09:08:48.371Z,64.25
2022-10-23T09:11:24.119Z,68.18
2022-10-23T09:14:01.506Z,100.45
2022-10-23T09:16:43.743Z,69.70
2022-10-23T09:19:18.955Z,64.13
2022-10-23T09:21:49.649Z,82.10
2022-10-23T09:24:18.657Z,42.88
2022-10-23T09:26:49.463Z,55.28
2022-10-23T09:29:23.974Z,65.60
2022-10-23T09:31:58.846Z,85.28
2022-10-23T09:34:27.836Z,74.97
2022-10-23T09:37:02.600Z,64.57
2022-10-23T09:39:34.440Z,33.78
2022-10-23T09:42:02.496Z,26.55
2022-10-23T09:44:32.108Z,36.25
2022-10-23T09:47:11.223Z,20.42
2022-10-23T09:49:40.561Z,28.85
2022-10-23T09:52:09.958Z,23.98
2022-10-23T09:54:47.435Z,29.88
2022-10-23T09:57:16.685Z,28.80
2022-10-23T09:59:43.199Z,32.50
2022-10-23T10:02:21.286Z,21.73
2022-10-23T10:04:47.784Z,22.83
2022-10-23T10:07:23.129Z,20.83
2022-10-23T10:09:49.619Z,24.17
2022-10-23T10:12:21.147Z,24.58
2022-10-23T10:14:53.497Z,25.85
2022-10-23T10:17:21.726Z,24.50
2022-10-23T10:20:05.397Z,26.42
2022-10-23T10:22:44.056Z,25.23
2022-10-23T10:25:21.967Z,24.83
2022-10-23T10:27:56.938Z,27.65
2022-10-23T10:30:24.205Z,32.90
2022-10-23T10:33:02.501Z,27.05
2022-10-23T10:35:38.397Z,29.98
2022-10-23T10:38:21.721Z,31.65
2022-10-23T10:41:05.794Z,29.08
2022-10-23T10:43:47.257Z,29.67
2022-10-23T10:46:23.798Z,24.77
2022-10-23T10:49:00.897Z,33.13
2022-10-23T10:51:39.032Z,30.63
2022-10-23T10:54:11.740Z,29.83
2022-10-23T10:56:43.418Z,27.55
2022-10-23T10:59:37.792Z,25.23
2022-10-23T11:02:31.743Z,24.20
2022-10-23T11:05:03.463Z,25.77
2022-10-23T11:07:35.731Z,25.55
2022-10-23T11:10:06.772Z,23.73
2022-10-23T11:12:33.240Z,23.13
2022-10-23T11:14:59.706Z,23.83
2022-10-23T11:17:30.266Z,21.05
2022-10-23T11:20:03.613Z,21.33
2022-10-23T11:22:38.429Z,20.75
2022-10-23T11:25:21.511Z,22.83
2022-10-23T11:28:10.526Z,15.23
2022-10-23T11:30:44.299Z,20.45
2022-10-23T11:33:47.971Z,15.95
2022-10-23T11:36:19.575Z,21.77
2022-10-23T11:38:48.122Z,22.20
2022-10-23T11:41:26.624Z,17.67
2022-10-23T11:43:58.215Z,15.57
2022-10-23T11:46:25.377Z,16.70
2022-10-23T11:48:53.649Z,17.70
2022-10-23T11:53:43.339Z,14.40
2022-10-23T11:56:12.769Z,16.17
2022-10-23T11:58:44.585Z,16.67
2022-10-23T12:01:35.718Z,13.77
2022-10-23T12:04:27.013Z,10.48
2022-10-23T12:06:56.947Z,10.88
2022-10-23T12:09:40.978Z,14.68
2022-10-23T12:12:07.323Z,12.88
2022-10-23T12:14:36.722Z,11.60
2022-10-23T12:17:15.659Z,13.70
2022-10-23T12:19:47.833Z,16.65
2022-10-23T12:22:14.611Z,13.70
2022-10-23T12:25:11.864Z,12.10
2022-10-23T12:27:42.761Z,11.38
2022-10-23T12:30:21.843Z,9.63
2022-10-23T12:33:01.459Z,11.40
2022-10-23T12:35:47.470Z,11.68
2022-10-23T12:38:16.110Z,10.93
2022-10-23T12:40:46.579Z,12.63
2022-10-23T12:43:25.178Z,21.50
2022-10-23T12:45:51.917Z,12.25
2022-10-23T12:48:21.332Z,10.07
2022-10-23T12:50:53.782Z,11.73
2022-10-23T12:53:21.257Z,11.95
2022-10-23T12:56:01.997Z,11.50
2022-10-23T12:58:31.937Z,14.80
2022-10-23T13:01:01.467Z,9.90
2022-10-23T13:03:29.244Z,10.88
2022-10-23T13:05:58.687Z,10.70
2022-10-23T13:08:33.908Z,11.43
2022-10-23T13:11:00.475Z,10.02
2022-10-23T13:13:26.969Z,11.13
2022-10-23T13:15:53.508Z,9.50
2022-10-23T13:18:19.988Z,10.27
2022-10-23T13:20:52.605Z,10.07
2022-10-23T13:23:26.729Z,11.13
2022-10-23T13:25:55.120Z,10.85
2022-10-23T13:28:24.580Z,11.05
2022-10-23T13:31:07.626Z,10.68
2022-10-23T13:33:38.392Z,9.77
2022-10-23T13:36:13.419Z,12.35
2022-10-23T13:39:21.972Z,14.07
2022-10-23T13:41:48.692Z,13.25
2022-10-23T13:44:16.820Z,12.57
2022-10-23T13:46:43.716Z,14.05
2022-10-23T13:49:10.176Z,13.27
2022-10-23T13:51:42.592Z,14.93
2022-10-23T13:54:24.578Z,11.20
2022-10-23T13:56:52.278Z,10.88
2022-10-23T13:59:19.064Z,14.55
2022-10-23T14:01:47.610Z,14.00
2022-10-23T14:04:15.453Z,13.75
2022-10-23T14:06:42.181Z,13.18
2022-10-23T14:09:13.058Z,11.77
2022-10-23T14:11:39.894Z,14.27
2022-10-23T14:14:06.474Z,13.32
2022-10-23T14:16:32.999Z,13.80
2022-10-23T14:18:59.496Z,14.38
2022-10-23T14:21:25.988Z,13.80
2022-10-23T14:23:53.443Z,13.32
2022-10-23T14:26:22.991Z,14.23
2022-10-23T14:28:52.573Z,12.93
2022-10-23T14:31:19.217Z,15.95
2022-10-23T14:33:51.617Z,15.10
2022-10-23T14:38:45.615Z,15.23
2022-10-23T14:41:13.778Z,15.95
2022-10-23T14:43:40.390Z,13.77
2022-10-23T14:46:14.245Z,13.95
2022-10-23T14:48:42.426Z,16.27
2022-10-23T14:51:21.606Z,14.18
2022-10-23T14:53:48.686Z,18.48
2022-10-23T14:56:15.746Z,16.80
2022-10-23T14:58:43.224Z,17.88
2022-10-23T15:01:10.652Z,15.65
2022-10-23T15:03:37.295Z,16.00
2022-10-23T15:06:04.170Z,17.48
2022-10-23T15:08:30.619Z,20.50
2022-10-23T15:11:00.313Z,15.52
2022-10-23T15:13:26.774Z,19.52
2022-10-23T15:16:07.557Z,15.55
2022-10-23T15:18:34.267Z,17.17
2022-10-23T15:21:00.878Z,20.65
2022-10-23T15:23:27.352Z,16.52
2022-10-23T15:26:05.524Z,17.80
2022-10-23T15:28:32.322Z,20.52
2022-10-23T15:30:59.216Z,16.88
2022-10-23T15:33:26.071Z,15.65
2022-10-23T15:35:53.133Z,19.30
2022-10-23T15:38:19.983Z,16.90
2022-10-23T15:40:46.913Z,21.65
2022-10-23T15:43:13.893Z,14.98
2022-10-23T15:45:42.085Z,18.48
2022-10-23T15:48:09.198Z,18.30
2022-10-23T15:50:36.263Z,16.45
2022-10-23T15:53:03.199Z,17.80
2022-10-23T15:55:29.825Z,17.70
2022-10-23T15:57:58.980Z,18.00
2022-10-23T16:00:25.627Z,15.73
2022-10-23T16:02:53.351Z,22.05
2022-10-23T16:05:19.803Z,19.88
2022-10-23T16:07:46.308Z,19.85
2022-10-23T16:10:12.903Z,20.05
2022-10-23T16:12:39.385Z,25.38
2022-10-23T16:15:07.825Z,21.00
2022-10-23T16:17:34.283Z,25.63
2022-10-23T16:20:00.811Z,24.00
2022-10-23T16:22:27.499Z,22.55
2022-10-23T16:24:54.024Z,25.08
2022-10-23T16:27:20.536Z,24.42
2022-10-23T16:29:46.995Z,22.15
2022-10-23T16:32:13.434Z,25.70
2022-10-23T16:34:39.899Z,25.15
2022-10-23T16:37:06.408Z,26.70
2022-10-23T16:39:32.958Z,29.65
2022-10-23T16:41:59.516Z,25.70
2022-10-23T16:44:25.996Z,24.38
2022-10-23T16:46:52.465Z,25.95
2022-10-23T16:49:19.040Z,27.98
2022-10-23T16:51:45.585Z,26.75
2022-10-23T16:54:12.191Z,27.98
2022-10-23T16:56:38.788Z,25.58
2022-10-23T16:59:05.527Z,22.02
2022-10-23T17:01:33.434Z,27.52
2022-10-23T17:04:00.052Z,25.90
2022-10-23T17:06:28.954Z,25.58
2022-10-23T17:08:55.919Z,25.15
2022-10-23T17:11:26.846Z,21.55
2022-10-23T17:14:02.064Z,23.88
2022-10-23T17:16:32.087Z,20.58
2022-10-23T17:18:58.638Z,23.58
2022-10-23T17:21:25.102Z,25.42
2022-10-23T17:23:52.365Z,19.60
2022-10-23T17:26:21.645Z,22.17
2022-10-23T17:28:48.303Z,22.70
2022-10-23T17:31:18.746Z,21.05
2022-10-23T17:33:46.690Z,24.80
2022-10-23T17:36:15.028Z,24.55
2022-10-23T17:38:43.365Z,20.20
2022-10-23T17:41:10.809Z,21.10
2022-10-23T17:43:37.674Z,18.48
2022-10-23T17:46:05.249Z,18.65
2022-10-23T17:48:31.762Z,23.77
2022-10-23T17:51:03.621Z,20.58
2022-10-23T17:53:30.227Z,22.17
2022-10-23T17:55:56.741Z,19.20
2022-10-23T17:58:23.658Z,17.52
2022-10-23T18:00:50.352Z,17.08
2022-10-23T18:03:19.750Z,19.27
2022-10-23T18:05:46.585Z,19.10
2022-10-23T18:08:13.164Z,22.73
2022-10-23T18:10:40.056Z,21.38
2022-10-23T18:13:06.575Z,23.00
2022-10-23T18:15:36.048Z,19.98
2022-10-23T18:18:07.699Z,27.30
2022-10-23T18:20:39.851Z,23.17
2022-10-23T18:23:07.116Z,24.60
2022-10-23T18:25:34.095Z,21.15
2022-10-23T18:28:02.603Z,26.33
2022-10-23T18:30:29.383Z,27.75
2022-10-23T18:32:58.124Z,24.05
2022-10-23T18:35:25.272Z,27.00
2022-10-23T18:37:52.059Z,26.73
2022-10-23T18:40:25.684Z,26.65
2022-10-23T18:42:54.698Z,27.95
2022-10-23T18:45:21.361Z,29.88
2022-10-23T18:47:47.879Z,30.13
2022-10-23T18:50:14.632Z,28.98
2022-10-23T18:52:41.159Z,28.08
2022-10-23T18:55:08.544Z,25.20
2022-10-23T18:57:36.456Z,33.15
2022-10-23T19:00:06.000Z,30.17
2022-10-23T19:02:33.158Z,28.27
2022-10-23T19:04:59.685Z,25.98
2022-10-23T19:07:26.803Z,31.65
2022-10-23T19:09:53.384Z,33.50
2022-10-23T19:12:19.970Z,32.50
2022-10-23T19:14:46.571Z,24.75
2022-10-23T19:17:17.320Z,27.25
2022-10-23T19:20:08.048Z,27.33
2022-10-23T19:22:35.183Z,26.63
2022-10-23T19:25:11.135Z,29.42
2022-10-23T19:27:38.618Z,26.67
2022-10-23T19:30:08.659Z,29.95
2022-10-23T19:32:35.179Z,26.63
2022-10-23T19:35:01.775Z,27.85
2022-10-23T19:37:28.493Z,29.15
2022-10-23T19:39:54.983Z,27.63
2022-10-23T19:42:21.538Z,27.27
2022-10-23T19:44:48.097Z,26.13
2022-10-23T19:47:16.914Z,27.40
2022-10-23T19:49:43.467Z,23.90
2022-10-23T19:52:09.997Z,24.45
2022-10-23T19:54:37.650Z,26.38
2022-10-23T19:57:04.252Z,29.80
2022-10-23T19:59:30.836Z,25.83
2022-10-23T20:01:57.702Z,24.48
2022-10-23T20:04:24.461Z,26.70
2022-10-23T20:06:51.244Z,26.67
2022-10-23T20:09:17.847Z,26.17
2022-10-23T20:11:45.278Z,27.77
2022-10-23T20:14:12.461Z,24.52
2022-10-23T20:16:39.410Z,24.35
2022-10-23T20:19:10.128Z,25.33
2022-10-23T20:21:38.138Z,27.08
2022-10-23T20:24:04.681Z,23.00
2022-10-23T20:26:31.129Z,24.38
2022-10-23T20:28:57.586Z,25.75
2022-10-23T20:31:27.331Z,20.58
2022-10-23T20:33:54.274Z,26.08
2022-10-23T20:36:32.073Z,21.38
2022-10-23T20:39:02.096Z,18.80
2022-10-23T20:41:28.991Z,18.65
2022-10-23T20:43:56.164Z,19.60
2022-10-23T20:46:26.346Z,20.73
2022-10-23T20:48:53.276Z,23.13
2022-10-23T20:51:22.266Z,17.02
2022-10-23T20:53:49.035Z,17.48
2022-10-23T20:56:18.630Z,16.98
2022-10-23T20:58:45.646Z,13.07
2022-10-23T21:01:14.427Z,17.13
2022-10-23T21:03:41.062Z,13.20
2022-10-23T21:06:13.391Z,15.32
2022-10-23T21:08:47.371Z,12.18
2022-10-23T21:11:17.909Z,11.82
2022-10-23T21:13:44.922Z,12.07
2022-10-23T21:16:14.220Z,14.02
2022-10-23T21:18:45.966Z,14.88
2022-10-23T21:21:19.072Z,15.45
2022-10-23T21:23:49.910Z,12.73
2022-10-23T21:26:17.961Z,10.98
2022-10-23T21:28:55.848Z,12.52
2022-10-23T21:31:32.316Z,14.32
2022-10-23T21:33:58.957Z,10.85
2022-10-23T21:36:25.768Z,9.13
2022-10-23T21:38:54.402Z,10.88
2022-10-23T21:41:29.714Z,10.55
2022-10-23T21:44:00.945Z,11.70
2022-10-23T21:46:28.210Z,9.65
2022-10-23T21:48:54.689Z,9.05
2022-10-23T21:51:29.568Z,9.32
2022-10-23T21:53:56.670Z,10.05
2022-10-23T21:56:36.400Z,9.88
2022-10-23T21:59:03.868Z,11.65
2022-10-23T22:01:30.488Z,15.48
2022-10-23T22:03:57.127Z,8.20
2022-10-23T22:06:28.583Z,12.45
2022-10-23T22:08:56.705Z,10.60
2022-10-23T22:11:23.690Z,9.77
2022-10-23T22:13:52.395Z,11.10
2022-10-23T22:16:20.211Z,11.85
2022-10-23T22:18:46.849Z,8.25
2022-10-23T22:21:16.200Z,9.80
2022-10-23T22:23:43.191Z,10.18
2022-10-23T22:26:25.252Z,10.38
2022-10-23T22:28:53.613Z,14.38
2022-10-23T22:31:22.588Z,10.27
2022-10-23T22:33:50.182Z,9.80
2022-10-23T22:36:16.664Z,10.23
2022-10-23T22:38:44.550Z,11.48
2022-10-23T22:41:11.419Z,8.80
2022-10-23T22:43:38.406Z,7.03
2022-10-23T22:46:13.322Z,9.10
2022-10-23T22:48:39.947Z,6.68
2022-10-23T22:51:08.922Z,10.38
2022-10-23T22:53:36.102Z,10.00
2022-10-23T22:56:09.905Z,9.98
2022-10-23T22:58:36.588Z,9.90
2022-10-23T23:01:19.841Z,10.27
2022-10-23T23:03:46.707Z,8.25
2022-10-23T23:06:13.577Z,9.85
2022-10-23T23:08:40.848Z,8.65
2022-10-23T23:11:08.982Z,7.30
2022-10-23T23:13:35.539Z,8.35
2022-10-23T23:16:02.280Z,10.50
2022-10-23T23:18:29.284Z,15.32
2022-10-23T23:21:03.872Z,8.20
2022-10-23T23:23:30.821Z,14.80
2022-10-23T23:25:57.377Z,8.07
2022-10-23T23:28:24.087Z,9.07
2022-10-23T23:30:50.551Z,7.53
2022-10-23T23:33:19.366Z,6.50
2022-10-23T23:35:47.027Z,7.28
2022-10-23T23:38:13.844Z,6.38
2022-10-23T23:40:40.486Z,6.97
2022-10-23T23:43:07.195Z,7.88
2022-10-23T23:45:33.652Z,7.40
2022-10-23T23:48:00.142Z,11.18
2022-10-23T23:50:28.065Z,6.18
2022-10-23T23:52:54.591Z,7.82
2022-10-23T23:55:21.063Z,6.40
2022-10-23T23:57:47.683Z,6.28
